sensor_id;sensor_type;location;lat;lon;timestamp;P1;durP1;ratioP1;P2;durP2;ratioP2
61385;SDS011;47256;18.904;-99.054;2023-04-24T00:01:52;34.55;;;8.38;;
61385;SDS011;47256;18.904;-99.054;2023-04-24T00:04:19;54.15;;;9.85;;
61385;SDS011;47256;18.904;-99.054;2023-04-24T00:06:46;17.10;;;6.90;;
61385;SDS011;47256;18.904;-99.054;2023-04-24T00:09:19;12.48;;;6.68;;
61385;SDS011;47256;18.904;-99.054;2023-04-24T00:11:46;12.68;;;7.80;;
61385;SDS011;47256;18.904;-99.054;2023-04-24T00:14:14;14.05;;;7.38;;
61385;SDS011;47256;18.904;-99.054;2023-04-24T00:16:41;32.33;;;8.45;;
61385;SDS011;47256;18.904;-99.054;2023-04-24T00:19:09;34.72;;;9.18;;
61385;SDS011;47256;18.904;-99.054;2023-04-24T00:21:37;30.10;;;9.07;;
61385;SDS011;47256;18.904;-99.054;2023-04-24T00:24:06;23.13;;;7.55;;
61385;SDS011;47256;18.904;-99.054;2023-04-24T00:26:34;15.88;;;7.40;;
61385;SDS011;47256;18.904;-99.054;2023-04-24T00:29:04;22.13;;;7.78;;
61385;SDS011;47256;18.904;-99.054;2023-04-24T00:31:31;37.17;;;8.82;;
61385;SDS011;47256;18.904;-99.054;2023-04-24T00:34:01;102.07;;;12.10;;
61385;SDS011;47256;18.904;-99.054;2023-04-24T00:36:29;31.48;;;8.57;;
61385;SDS011;47256;18.904;-99.054;2023-04-24T00:38:57;27.05;;;9.23;;
61385;SDS011;47256;18.904;-99.054;2023-04-24T00:41:24;42.88;;;10.13;;
61385;SDS011;47256;18.904;-99.054;2023-04-24T00:43:54;23.40;;;8.23;;
61385;SDS011;47256;18.904;-99.054;2023-04-24T00:46:22;29.90;;;9.20;;
61385;SDS011;47256;18.904;-99.054;2023-04-24T00:48:52;36.72;;;10.50;;
61385;SDS011;47256;18.904;-99.054;2023-04-24T00:51:20;35.97;;;9.68;;
61385;SDS011;47256;18.904;-99.054;2023-04-24T00:53:49;17.88;;;8.88;;
61385;SDS011;47256;18.904;-99.054;2023-04-24T00:56:18;27.67;;;8.85;;
61385;SDS011;47256;18.904;-99.054;2023-04-24T00:58:49;26.55;;;9.55;;
61385;SDS011;47256;18.904;-99.054;2023-04-24T01:01:20;21.35;;;9.43;;
61385;SDS011;47256;18.904;-99.054;2023-04-24T01:03:50;18.45;;;8.35;;
61385;SDS011;47256;18.904;-99.054;2023-04-24T01:06:20;17.80;;;8.68;;
61385;SDS011;47256;18.904;-99.054;2023-04-24T01:08:48;13.25;;;8.30;;
61385;SDS011;47256;18.904;-99.054;2023-04-24T01:11:16;14.52;;;8.60;;
61385;SDS011;47256;18.904;-99.054;2023-04-24T01:13:44;12.63;;;8.40;;
61385;SDS011;47256;18.904;-99.054;2023-04-24T01:16:14;14.63;;;8.57;;
61385;SDS011;47256;18.904;-99.054;2023-04-24T01:18:44;17.50;;;8.63;;
61385;SDS011;47256;18.904;-99.054;2023-04-24T01:21:13;14.90;;;8.68;;
61385;SDS011;47256;18.904;-99.054;2023-04-24T01:23:47;15.05;;;8.23;;
61385;SDS011;47256;18.904;-99.054;2023-04-24T01:26:17;11.75;;;8.50;;
61385;SDS011;47256;18.904;-99.054;2023-04-24T01:28:47;14.70;;;9.32;;
61385;SDS011;47256;18.904;-99.054;2023-04-24T01:31:17;14.18;;;9.48;;
61385;SDS011;47256;18.904;-99.054;2023-04-24T01:33:45;18.08;;;10.27;;
61385;SDS011;47256;18.904;-99.054;2023-04-24T01:36:13;16.98;;;9.73;;
61385;SDS011;47256;18.904;-99.054;2023-04-24T01:38:42;14.90;;;10.05;;
61385;SDS011;47256;18.904;-99.054;2023-04-24T01:41:10;46.17;;;11.88;;
61385;SDS011;47256;18.904;-99.054;2023-04-24T01:43:40;72.38;;;13.70;;
61385;SDS011;47256;18.904;-99.054;2023-04-24T01:46:07;22.17;;;10.80;;
61385;SDS011;47256;18.904;-99.054;2023-04-24T01:48:35;43.50;;;10.65;;
61385;SDS011;47256;18.904;-99.054;2023-04-24T01:51:03;25.98;;;11.70;;
61385;SDS011;47256;18.904;-99.054;2023-04-24T01:53:30;22.88;;;12.20;;
61385;SDS011;47256;18.904;-99.054;2023-04-24T01:55:57;28.92;;;12.07;;
61385;SDS011;47256;18.904;-99.054;2023-04-24T01:58:26;26.27;;;11.98;;
61385;SDS011;47256;18.904;-99.054;2023-04-24T02:00:59;27.77;;;10.73;;
61385;SDS011;47256;18.904;-99.054;2023-04-24T02:03:26;35.47;;;11.98;;
61385;SDS011;47256;18.904;-99.054;2023-04-24T02:05:56;29.75;;;11.20;;
61385;SDS011;47256;18.904;-99.054;2023-04-24T02:08:33;88.25;;;14.30;;
61385;SDS011;47256;18.904;-99.054;2023-04-24T02:11:04;40.67;;;12.10;;
61385;SDS011;47256;18.904;-99.054;2023-04-24T02:13:32;49.47;;;14.00;;
61385;SDS011;47256;18.904;-99.054;2023-04-24T02:16:00;27.92;;;11.38;;
61385;SDS011;47256;18.904;-99.054;2023-04-24T02:18:29;27.95;;;10.27;;
61385;SDS011;47256;18.904;-99.054;2023-04-24T02:20:57;46.17;;;12.10;;
61385;SDS011;47256;18.904;-99.054;2023-04-24T02:23:24;26.90;;;10.05;;
61385;SDS011;47256;18.904;-99.054;2023-04-24T02:25:53;18.45;;;9.93;;
61385;SDS011;47256;18.904;-99.054;2023-04-24T02:28:20;34.03;;;10.43;;
61385;SDS011;47256;18.904;-99.054;2023-04-24T02:30:50;22.98;;;11.05;;
61385;SDS011;47256;18.904;-99.054;2023-04-24T02:33:17;30.85;;;11.95;;
61385;SDS011;47256;18.904;-99.054;2023-04-24T02:35:44;22.67;;;11.25;;
61385;SDS011;47256;18.904;-99.054;2023-04-24T02:38:11;20.80;;;11.57;;
61385;SDS011;47256;18.904;-99.054;2023-04-24T02:40:39;27.80;;;11.05;;
61385;SDS011;47256;18.904;-99.054;2023-04-24T02:43:07;47.60;;;12.52;;
61385;SDS011;47256;18.904;-99.054;2023-04-24T02:45:34;25.33;;;10.88;;
61385;SDS011;47256;18.904;-99.054;2023-04-24T02:48:01;25.23;;;11.52;;
61385;SDS011;47256;18.904;-99.054;2023-04-24T02:50:28;22.00;;;11.95;;
61385;SDS011;47256;18.904;-99.054;2023-04-24T02:52:56;18.38;;;12.15;;
61385;SDS011;47256;18.904;-99.054;2023-04-24T02:55:23;19.77;;;13.30;;
61385;SDS011;47256;18.904;-99.054;2023-04-24T02:57:51;28.35;;;12.45;;
61385;SDS011;47256;18.904;-99.054;2023-04-24T03:00:18;30.88;;;12.38;;
61385;SDS011;47256;18.904;-99.054;2023-04-24T03:02:45;33.08;;;12.65;;
61385;SDS011;47256;18.904;-99.054;2023-04-24T03:05:12;26.73;;;12.43;;
61385;SDS011;47256;18.904;-99.054;2023-04-24T03:07:39;39.67;;;13.90;;
61385;SDS011;47256;18.904;-99.054;2023-04-24T03:10:07;28.20;;;12.20;;
61385;SDS011;47256;18.904;-99.054;2023-04-24T03:12:35;32.67;;;12.75;;
61385;SDS011;47256;18.904;-99.054;2023-04-24T03:15:02;20.10;;;11.98;;
61385;SDS011;47256;18.904;-99.054;2023-04-24T03:17:30;27.42;;;13.35;;
61385;SDS011;47256;18.904;-99.054;2023-04-24T03:19:58;39.85;;;13.25;;
61385;SDS011;47256;18.904;-99.054;2023-04-24T03:22:25;25.65;;;12.90;;
61385;SDS011;47256;18.904;-99.054;2023-04-24T03:24:53;24.10;;;11.98;;
61385;SDS011;47256;18.904;-99.054;2023-04-24T03:27:20;21.55;;;12.48;;
61385;SDS011;47256;18.904;-99.054;2023-04-24T03:29:54;27.38;;;11.63;;
61385;SDS011;47256;18.904;-99.054;2023-04-24T03:32:27;19.73;;;11.43;;
61385;SDS011;47256;18.904;-99.054;2023-04-24T03:34:56;26.58;;;13.35;;
61385;SDS011;47256;18.904;-99.054;2023-04-24T03:37:23;20.02;;;12.07;;
61385;SDS011;47256;18.904;-99.054;2023-04-24T03:40:01;22.95;;;12.07;;
61385;SDS011;47256;18.904;-99.054;2023-04-24T03:42:30;37.80;;;12.77;;
61385;SDS011;47256;18.904;-99.054;2023-04-24T03:44:58;25.77;;;13.45;;
61385;SDS011;47256;18.904;-99.054;2023-04-24T03:47:30;25.67;;;13.32;;
61385;SDS011;47256;18.904;-99.054;2023-04-24T03:50:01;29.85;;;12.77;;
61385;SDS011;47256;18.904;-99.054;2023-04-24T03:52:29;36.55;;;13.32;;
61385;SDS011;47256;18.904;-99.054;2023-04-24T03:54:56;34.20;;;14.55;;
61385;SDS011;47256;18.904;-99.054;2023-04-24T03:57:25;42.88;;;14.18;;
61385;SDS011;47256;18.904;-99.054;2023-04-24T04:00:09;45.92;;;12.98;;
61385;SDS011;47256;18.904;-99.054;2023-04-24T04:02:40;23.65;;;14.13;;
61385;SDS011;47256;18.904;-99.054;2023-04-24T04:05:08;25.33;;;12.52;;
61385;SDS011;47256;18.904;-99.054;2023-04-24T04:07:35;27.35;;;12.80;;
61385;SDS011;47256;18.904;-99.054;2023-04-24T04:10:04;22.13;;;13.43;;
61385;SDS011;47256;18.904;-99.054;2023-04-24T04:12:32;29.75;;;13.60;;
61385;SDS011;47256;18.904;-99.054;2023-04-24T04:15:00;21.55;;;13.07;;
61385;SDS011;47256;18.904;-99.054;2023-04-24T04:17:27;18.70;;;12.10;;
61385;SDS011;47256;18.904;-99.054;2023-04-24T04:19:55;38.45;;;13.48;;
61385;SDS011;47256;18.904;-99.054;2023-04-24T04:22:23;37.65;;;14.25;;
61385;SDS011;47256;18.904;-99.054;2023-04-24T04:24:52;23.65;;;13.50;;
61385;SDS011;47256;18.904;-99.054;2023-04-24T04:27:22;24.02;;;13.40;;
61385;SDS011;47256;18.904;-99.054;2023-04-24T04:30:02;21.00;;;12.65;;
61385;SDS011;47256;18.904;-99.054;2023-04-24T04:32:37;28.65;;;12.85;;
61385;SDS011;47256;18.904;-99.054;2023-04-24T04:35:04;26.42;;;13.75;;
61385;SDS011;47256;18.904;-99.054;2023-04-24T04:37:33;25.17;;;13.88;;
61385;SDS011;47256;18.904;-99.054;2023-04-24T04:40:38;17.40;;;12.95;;
61385;SDS011;47256;18.904;-99.054;2023-04-24T04:43:06;24.20;;;13.45;;
61385;SDS011;47256;18.904;-99.054;2023-04-24T04:45:42;18.13;;;11.70;;
61385;SDS011;47256;18.904;-99.054;2023-04-24T04:48:35;24.35;;;12.63;;
61385;SDS011;47256;18.904;-99.054;2023-04-24T04:51:05;24.40;;;12.63;;
61385;SDS011;47256;18.904;-99.054;2023-04-24T04:53:32;27.15;;;13.32;;
61385;SDS011;47256;18.904;-99.054;2023-04-24T04:56:01;17.00;;;12.38;;
61385;SDS011;47256;18.904;-99.054;2023-04-24T04:58:40;23.48;;;13.02;;
61385;SDS011;47256;18.904;-99.054;2023-04-24T05:01:11;23.23;;;13.73;;
61385;SDS011;47256;18.904;-99.054;2023-04-24T05:03:42;24.92;;;13.98;;
61385;SDS011;47256;18.904;-99.054;2023-04-24T05:06:13;23.08;;;13.95;;
61385;SDS011;47256;18.904;-99.054;2023-04-24T05:08:41;37.55;;;14.05;;
61385;SDS011;47256;18.904;-99.054;2023-04-24T05:11:13;27.50;;;14.18;;
61385;SDS011;47256;18.904;-99.054;2023-04-24T05:13:41;28.80;;;13.43;;
61385;SDS011;47256;18.904;-99.054;2023-04-24T05:16:14;24.77;;;13.07;;
61385;SDS011;47256;18.904;-99.054;2023-04-24T05:18:42;29.35;;;15.00;;
61385;SDS011;47256;18.904;-99.054;2023-04-24T05:21:13;22.48;;;14.57;;
61385;SDS011;47256;18.904;-99.054;2023-04-24T05:23:43;32.30;;;14.73;;
61385;SDS011;47256;18.904;-99.054;2023-04-24T05:26:15;23.63;;;16.13;;
61385;SDS011;47256;18.904;-99.054;2023-04-24T05:28:42;34.25;;;17.83;;
61385;SDS011;47256;18.904;-99.054;2023-04-24T05:31:11;25.02;;;14.82;;
61385;SDS011;47256;18.904;-99.054;2023-04-24T05:33:40;30.55;;;15.80;;
61385;SDS011;47256;18.904;-99.054;2023-04-24T05:36:07;26.30;;;13.57;;
61385;SDS011;47256;18.904;-99.054;2023-04-24T05:38:35;21.05;;;14.45;;
61385;SDS011;47256;18.904;-99.054;2023-04-24T05:41:02;26.52;;;15.43;;
61385;SDS011;47256;18.904;-99.054;2023-04-24T05:43:30;24.40;;;14.27;;
61385;SDS011;47256;18.904;-99.054;2023-04-24T05:45:57;29.85;;;14.40;;
61385;SDS011;47256;18.904;-99.054;2023-04-24T05:48:24;20.20;;;12.95;;
61385;SDS011;47256;18.904;-99.054;2023-04-24T05:50:52;25.90;;;13.40;;
61385;SDS011;47256;18.904;-99.054;2023-04-24T05:53:19;22.58;;;13.43;;
61385;SDS011;47256;18.904;-99.054;2023-04-24T05:55:47;24.23;;;12.57;;
61385;SDS011;47256;18.904;-99.054;2023-04-24T05:58:15;18.40;;;12.88;;
61385;SDS011;47256;18.904;-99.054;2023-04-24T06:00:43;17.98;;;12.25;;
61385;SDS011;47256;18.904;-99.054;2023-04-24T06:03:12;19.02;;;12.40;;
61385;SDS011;47256;18.904;-99.054;2023-04-24T06:05:40;35.38;;;12.30;;
61385;SDS011;47256;18.904;-99.054;2023-04-24T06:08:08;22.73;;;12.27;;
61385;SDS011;47256;18.904;-99.054;2023-04-24T06:10:38;21.20;;;12.98;;
61385;SDS011;47256;18.904;-99.054;2023-04-24T06:13:08;21.95;;;12.93;;
61385;SDS011;47256;18.904;-99.054;2023-04-24T06:15:38;20.00;;;12.80;;
61385;SDS011;47256;18.904;-99.054;2023-04-24T06:18:10;20.50;;;12.75;;
61385;SDS011;47256;18.904;-99.054;2023-04-24T06:20:39;21.02;;;14.02;;
61385;SDS011;47256;18.904;-99.054;2023-04-24T06:23:08;24.52;;;12.45;;
61385;SDS011;47256;18.904;-99.054;2023-04-24T06:25:36;20.17;;;12.98;;
61385;SDS011;47256;18.904;-99.054;2023-04-24T06:28:03;17.50;;;12.68;;
61385;SDS011;47256;18.904;-99.054;2023-04-24T06:30:31;18.05;;;13.43;;
61385;SDS011;47256;18.904;-99.054;2023-04-24T06:32:58;19.42;;;13.82;;
61385;SDS011;47256;18.904;-99.054;2023-04-24T06:35:26;19.70;;;12.57;;
61385;SDS011;47256;18.904;-99.054;2023-04-24T06:37:53;23.38;;;13.32;;
61385;SDS011;47256;18.904;-99.054;2023-04-24T06:40:22;26.15;;;12.18;;
61385;SDS011;47256;18.904;-99.054;2023-04-24T06:42:50;26.35;;;13.13;;
61385;SDS011;47256;18.904;-99.054;2023-04-24T06:45:17;26.80;;;13.55;;
61385;SDS011;47256;18.904;-99.054;2023-04-24T06:47:44;22.42;;;12.60;;
61385;SDS011;47256;18.904;-99.054;2023-04-24T06:50:13;24.30;;;12.60;;
61385;SDS011;47256;18.904;-99.054;2023-04-24T06:52:40;18.52;;;12.98;;
61385;SDS011;47256;18.904;-99.054;2023-04-24T06:55:07;21.02;;;13.32;;
61385;SDS011;47256;18.904;-99.054;2023-04-24T06:57:36;18.83;;;12.43;;
61385;SDS011;47256;18.904;-99.054;2023-04-24T07:00:04;23.17;;;12.93;;
61385;SDS011;47256;18.904;-99.054;2023-04-24T07:02:33;16.35;;;12.20;;
61385;SDS011;47256;18.904;-99.054;2023-04-24T07:05:01;22.15;;;13.20;;
61385;SDS011;47256;18.904;-99.054;2023-04-24T07:07:28;19.58;;;12.60;;
61385;SDS011;47256;18.904;-99.054;2023-04-24T07:09:56;27.80;;;13.40;;
61385;SDS011;47256;18.904;-99.054;2023-04-24T07:12:24;23.35;;;13.27;;
61385;SDS011;47256;18.904;-99.054;2023-04-24T07:14:51;25.55;;;13.50;;
61385;SDS011;47256;18.904;-99.054;2023-04-24T07:17:18;20.60;;;12.18;;
61385;SDS011;47256;18.904;-99.054;2023-04-24T07:19:46;20.20;;;13.02;;
61385;SDS011;47256;18.904;-99.054;2023-04-24T07:22:13;16.55;;;11.95;;
61385;SDS011;47256;18.904;-99.054;2023-04-24T07:24:45;15.32;;;12.85;;
61385;SDS011;47256;18.904;-99.054;2023-04-24T07:27:12;20.20;;;14.30;;
61385;SDS011;47256;18.904;-99.054;2023-04-24T07:29:40;16.52;;;11.73;;
61385;SDS011;47256;18.904;-99.054;2023-04-24T07:32:08;24.60;;;13.32;;
61385;SDS011;47256;18.904;-99.054;2023-04-24T07:34:35;17.77;;;12.73;;
61385;SDS011;47256;18.904;-99.054;2023-04-24T07:37:02;17.65;;;13.07;;
61385;SDS011;47256;18.904;-99.054;2023-04-24T07:39:30;18.35;;;13.02;;
61385;SDS011;47256;18.904;-99.054;2023-04-24T07:41:58;19.98;;;14.02;;
61385;SDS011;47256;18.904;-99.054;2023-04-24T07:44:28;17.77;;;12.50;;
61385;SDS011;47256;18.904;-99.054;2023-04-24T07:46:56;23.02;;;13.65;;
61385;SDS011;47256;18.904;-99.054;2023-04-24T07:49:24;22.33;;;13.80;;
61385;SDS011;47256;18.904;-99.054;2023-04-24T07:51:51;25.80;;;13.32;;
61385;SDS011;47256;18.904;-99.054;2023-04-24T07:54:18;21.73;;;12.75;;
61385;SDS011;47256;18.904;-99.054;2023-04-24T07:56:46;21.77;;;12.48;;
61385;SDS011;47256;18.904;-99.054;2023-04-24T07:59:14;21.17;;;12.75;;
61385;SDS011;47256;18.904;-99.054;2023-04-24T08:01:41;20.58;;;13.95;;
61385;SDS011;47256;18.904;-99.054;2023-04-24T08:04:09;24.88;;;13.57;;
61385;SDS011;47256;18.904;-99.054;2023-04-24T08:06:36;24.02;;;13.20;;
61385;SDS011;47256;18.904;-99.054;2023-04-24T08:09:03;16.10;;;12.93;;
61385;SDS011;47256;18.904;-99.054;2023-04-24T08:11:30;23.75;;;13.15;;
61385;SDS011;47256;18.904;-99.054;2023-04-24T08:13:58;24.13;;;14.10;;
61385;SDS011;47256;18.904;-99.054;2023-04-24T08:16:25;22.25;;;14.02;;
61385;SDS011;47256;18.904;-99.054;2023-04-24T08:18:53;19.00;;;12.80;;
61385;SDS011;47256;18.904;-99.054;2023-04-24T08:21:20;22.25;;;13.77;;
61385;SDS011;47256;18.904;-99.054;2023-04-24T08:23:47;23.40;;;14.60;;
61385;SDS011;47256;18.904;-99.054;2023-04-24T08:26:14;17.05;;;13.02;;
61385;SDS011;47256;18.904;-99.054;2023-04-24T08:28:42;22.83;;;14.00;;
61385;SDS011;47256;18.904;-99.054;2023-04-24T08:31:09;23.20;;;13.88;;
61385;SDS011;47256;18.904;-99.054;2023-04-24T08:33:37;21.27;;;13.23;;
61385;SDS011;47256;18.904;-99.054;2023-04-24T08:36:04;18.77;;;12.60;;
61385;SDS011;47256;18.904;-99.054;2023-04-24T08:38:32;22.10;;;14.43;;
61385;SDS011;47256;18.904;-99.054;2023-04-24T08:41:00;19.35;;;13.73;;
61385;SDS011;47256;18.904;-99.054;2023-04-24T08:43:28;21.75;;;14.63;;
61385;SDS011;47256;18.904;-99.054;2023-04-24T08:45:56;24.75;;;13.90;;
61385;SDS011;47256;18.904;-99.054;2023-04-24T08:48:24;21.95;;;14.48;;
61385;SDS011;47256;18.904;-99.054;2023-04-24T08:50:53;26.48;;;14.57;;
61385;SDS011;47256;18.904;-99.054;2023-04-24T08:53:20;24.00;;;13.57;;
61385;SDS011;47256;18.904;-99.054;2023-04-24T08:55:48;19.65;;;14.45;;
61385;SDS011;47256;18.904;-99.054;2023-04-24T08:58:17;20.40;;;14.07;;
61385;SDS011;47256;18.904;-99.054;2023-04-24T09:00:45;21.55;;;13.98;;
61385;SDS011;47256;18.904;-99.054;2023-04-24T09:03:14;21.20;;;13.77;;
61385;SDS011;47256;18.904;-99.054;2023-04-24T09:05:42;18.88;;;13.98;;
61385;SDS011;47256;18.904;-99.054;2023-04-24T09:08:15;20.27;;;13.95;;
61385;SDS011;47256;18.904;-99.054;2023-04-24T09:10:44;20.30;;;13.02;;
61385;SDS011;47256;18.904;-99.054;2023-04-24T09:13:12;20.92;;;13.63;;
61385;SDS011;47256;18.904;-99.054;2023-04-24T09:15:41;18.80;;;13.77;;
61385;SDS011;47256;18.904;-99.054;2023-04-24T09:18:08;21.27;;;13.63;;
61385;SDS011;47256;18.904;-99.054;2023-04-24T09:20:56;19.13;;;13.90;;
61385;SDS011;47256;18.904;-99.054;2023-04-24T09:25:54;17.40;;;12.65;;
61385;SDS011;47256;18.904;-99.054;2023-04-24T09:31:11;19.50;;;13.50;;
61385;SDS011;47256;18.904;-99.054;2023-04-24T09:33:58;17.40;;;13.68;;
61385;SDS011;47256;18.904;-99.054;2023-04-24T09:36:27;20.38;;;14.27;;
61385;SDS011;47256;18.904;-99.054;2023-04-24T09:38:58;21.02;;;13.02;;
61385;SDS011;47256;18.904;-99.054;2023-04-24T09:41:32;22.65;;;14.02;;
61385;SDS011;47256;18.904;-99.054;2023-04-24T09:44:12;18.90;;;13.88;;
61385;SDS011;47256;18.904;-99.054;2023-04-24T09:46:42;25.38;;;14.82;;
61385;SDS011;47256;18.904;-99.054;2023-04-24T09:49:12;26.13;;;15.43;;
61385;SDS011;47256;18.904;-99.054;2023-04-24T09:51:44;19.58;;;13.85;;
61385;SDS011;47256;18.904;-99.054;2023-04-24T09:54:15;21.20;;;13.82;;
61385;SDS011;47256;18.904;-99.054;2023-04-24T09:56:45;19.80;;;14.55;;
61385;SDS011;47256;18.904;-99.054;2023-04-24T09:59:15;18.20;;;15.07;;
61385;SDS011;47256;18.904;-99.054;2023-04-24T10:01:45;21.45;;;13.57;;
61385;SDS011;47256;18.904;-99.054;2023-04-24T10:04:24;25.02;;;14.50;;
61385;SDS011;47256;18.904;-99.054;2023-04-24T10:06:53;23.48;;;14.63;;
61385;SDS011;47256;18.904;-99.054;2023-04-24T10:09:22;25.45;;;14.98;;
61385;SDS011;47256;18.904;-99.054;2023-04-24T10:11:51;19.77;;;14.32;;
61385;SDS011;47256;18.904;-99.054;2023-04-24T10:14:23;26.42;;;15.05;;
61385;SDS011;47256;18.904;-99.054;2023-04-24T10:16:54;24.55;;;14.10;;
61385;SDS011;47256;18.904;-99.054;2023-04-24T10:19:25;18.58;;;14.25;;
61385;SDS011;47256;18.904;-99.054;2023-04-24T10:21:52;22.90;;;15.02;;
61385;SDS011;47256;18.904;-99.054;2023-04-24T10:24:21;24.60;;;14.98;;
61385;SDS011;47256;18.904;-99.054;2023-04-24T10:26:48;22.17;;;14.43;;
61385;SDS011;47256;18.904;-99.054;2023-04-24T10:29:18;26.15;;;14.90;;
61385;SDS011;47256;18.904;-99.054;2023-04-24T10:31:47;22.70;;;13.43;;
61385;SDS011;47256;18.904;-99.054;2023-04-24T10:34:14;24.90;;;13.15;;
61385;SDS011;47256;18.904;-99.054;2023-04-24T10:36:48;19.60;;;13.23;;
61385;SDS011;47256;18.904;-99.054;2023-04-24T10:39:18;19.45;;;13.60;;
61385;SDS011;47256;18.904;-99.054;2023-04-24T10:41:50;22.17;;;13.50;;
61385;SDS011;47256;18.904;-99.054;2023-04-24T10:44:18;24.88;;;13.77;;
61385;SDS011;47256;18.904;-99.054;2023-04-24T10:46:52;19.83;;;13.98;;
61385;SDS011;47256;18.904;-99.054;2023-04-24T10:49:28;27.42;;;14.88;;
61385;SDS011;47256;18.904;-99.054;2023-04-24T10:51:59;24.08;;;14.15;;
61385;SDS011;47256;18.904;-99.054;2023-04-24T10:54:35;22.02;;;13.82;;
61385;SDS011;47256;18.904;-99.054;2023-04-24T11:00:15;17.52;;;12.60;;
61385;SDS011;47256;18.904;-99.054;2023-04-24T11:02:47;21.20;;;13.50;;
61385;SDS011;47256;18.904;-99.054;2023-04-24T11:05:16;27.30;;;14.50;;
61385;SDS011;47256;18.904;-99.054;2023-04-24T11:10:45;27.45;;;14.60;;
61385;SDS011;47256;18.904;-99.054;2023-04-24T11:13:16;25.73;;;14.98;;
61385;SDS011;47256;18.904;-99.054;2023-04-24T11:16:21;28.52;;;15.32;;
61385;SDS011;47256;18.904;-99.054;2023-04-24T11:19:00;22.23;;;14.05;;
61385;SDS011;47256;18.904;-99.054;2023-04-24T11:24:24;24.95;;;14.32;;
61385;SDS011;47256;18.904;-99.054;2023-04-24T11:26:56;20.55;;;14.23;;
61385;SDS011;47256;18.904;-99.054;2023-04-24T11:29:37;21.10;;;14.90;;
61385;SDS011;47256;18.904;-99.054;2023-04-24T11:32:46;17.33;;;14.27;;
61385;SDS011;47256;18.904;-99.054;2023-04-24T11:35:18;23.95;;;14.70;;
61385;SDS011;47256;18.904;-99.054;2023-04-24T11:37:54;22.67;;;13.77;;
61385;SDS011;47256;18.904;-99.054;2023-04-24T11:40:22;31.98;;;16.05;;
61385;SDS011;47256;18.904;-99.054;2023-04-24T11:42:52;30.58;;;15.07;;
61385;SDS011;47256;18.904;-99.054;2023-04-24T11:45:23;20.85;;;13.73;;
61385;SDS011;47256;18.904;-99.054;2023-04-24T11:47:52;23.05;;;14.75;;
61385;SDS011;47256;18.904;-99.054;2023-04-24T11:50:21;20.92;;;15.50;;
61385;SDS011;47256;18.904;-99.054;2023-04-24T11:52:51;24.48;;;14.95;;
61385;SDS011;47256;18.904;-99.054;2023-04-24T11:57:46;21.20;;;14.50;;
61385;SDS011;47256;18.904;-99.054;2023-04-24T12:00:35;21.30;;;14.45;;
61385;SDS011;47256;18.904;-99.054;2023-04-24T12:03:06;19.20;;;13.35;;
61385;SDS011;47256;18.904;-99.054;2023-04-24T12:05:37;21.77;;;14.50;;
61385;SDS011;47256;18.904;-99.054;2023-04-24T12:08:06;80.90;;;17.95;;
61385;SDS011;47256;18.904;-99.054;2023-04-24T12:10:33;27.02;;;16.08;;
61385;SDS011;47256;18.904;-99.054;2023-04-24T12:13:01;25.17;;;14.80;;
61385;SDS011;47256;18.904;-99.054;2023-04-24T12:15:29;28.17;;;16.13;;
61385;SDS011;47256;18.904;-99.054;2023-04-24T12:17:56;23.45;;;14.75;;
61385;SDS011;47256;18.904;-99.054;2023-04-24T12:20:24;30.95;;;14.88;;
61385;SDS011;47256;18.904;-99.054;2023-04-24T12:22:53;54.58;;;28.85;;
61385;SDS011;47256;18.904;-99.054;2023-04-24T12:25:22;122.28;;;58.90;;
61385;SDS011;47256;18.904;-99.054;2023-04-24T12:27:54;137.52;;;55.28;;
61385;SDS011;47256;18.904;-99.054;2023-04-24T12:30:43;69.38;;;27.27;;
61385;SDS011;47256;18.904;-99.054;2023-04-24T12:33:18;106.03;;;36.53;;
61385;SDS011;47256;18.904;-99.054;2023-04-24T12:35:47;99.55;;;35.33;;
61385;SDS011;47256;18.904;-99.054;2023-04-24T12:38:16;78.65;;;33.60;;
61385;SDS011;47256;18.904;-99.054;2023-04-24T12:40:47;90.60;;;38.30;;
61385;SDS011;47256;18.904;-99.054;2023-04-24T12:43:27;64.70;;;27.67;;
61385;SDS011;47256;18.904;-99.054;2023-04-24T12:45:55;59.65;;;28.38;;
61385;SDS011;47256;18.904;-99.054;2023-04-24T12:48:23;57.83;;;27.65;;
61385;SDS011;47256;18.904;-99.054;2023-04-24T12:50:50;80.97;;;29.40;;
61385;SDS011;47256;18.904;-99.054;2023-04-24T12:53:18;48.97;;;21.83;;
61385;SDS011;47256;18.904;-99.054;2023-04-24T12:55:45;36.60;;;18.50;;
61385;SDS011;47256;18.904;-99.054;2023-04-24T12:58:21;39.65;;;21.42;;
61385;SDS011;47256;18.904;-99.054;2023-04-24T13:00:48;32.13;;;18.75;;
61385;SDS011;47256;18.904;-99.054;2023-04-24T13:03:15;28.85;;;17.55;;
61385;SDS011;47256;18.904;-99.054;2023-04-24T13:05:43;42.42;;;24.02;;
61385;SDS011;47256;18.904;-99.054;2023-04-24T13:08:10;44.67;;;23.63;;
61385;SDS011;47256;18.904;-99.054;2023-04-24T13:10:38;42.67;;;26.05;;
61385;SDS011;47256;18.904;-99.054;2023-04-24T13:13:06;52.65;;;27.50;;
61385;SDS011;47256;18.904;-99.054;2023-04-24T13:15:34;49.75;;;26.02;;
61385;SDS011;47256;18.904;-99.054;2023-04-24T13:18:01;40.17;;;22.95;;
61385;SDS011;47256;18.904;-99.054;2023-04-24T13:20:29;46.78;;;25.95;;
61385;SDS011;47256;18.904;-99.054;2023-04-24T13:22:56;42.55;;;24.08;;
61385;SDS011;47256;18.904;-99.054;2023-04-24T13:25:24;41.28;;;25.23;;
61385;SDS011;47256;18.904;-99.054;2023-04-24T13:27:52;47.38;;;24.73;;
61385;SDS011;47256;18.904;-99.054;2023-04-24T13:30:19;49.80;;;23.10;;
61385;SDS011;47256;18.904;-99.054;2023-04-24T13:32:46;39.05;;;22.98;;
61385;SDS011;47256;18.904;-99.054;2023-04-24T13:35:13;50.13;;;25.05;;
61385;SDS011;47256;18.904;-99.054;2023-04-24T13:37:41;39.63;;;22.50;;
61385;SDS011;47256;18.904;-99.054;2023-04-24T13:40:08;36.83;;;23.88;;
61385;SDS011;47256;18.904;-99.054;2023-04-24T13:42:36;37.03;;;21.45;;
61385;SDS011;47256;18.904;-99.054;2023-04-24T13:45:03;44.72;;;22.13;;
61385;SDS011;47256;18.904;-99.054;2023-04-24T13:47:31;38.97;;;21.00;;
61385;SDS011;47256;18.904;-99.054;2023-04-24T13:49:58;50.58;;;21.23;;
61385;SDS011;47256;18.904;-99.054;2023-04-24T13:52:25;88.57;;;23.33;;
61385;SDS011;47256;18.904;-99.054;2023-04-24T13:54:52;42.65;;;20.52;;
61385;SDS011;47256;18.904;-99.054;2023-04-24T13:57:19;32.88;;;19.42;;
61385;SDS011;47256;18.904;-99.054;2023-04-24T13:59:47;28.20;;;16.58;;
61385;SDS011;47256;18.904;-99.054;2023-04-24T14:02:14;29.45;;;18.00;;
61385;SDS011;47256;18.904;-99.054;2023-04-24T14:04:41;45.92;;;19.85;;
61385;SDS011;47256;18.904;-99.054;2023-04-24T14:07:08;34.13;;;17.92;;
61385;SDS011;47256;18.904;-99.054;2023-04-24T14:09:35;33.08;;;18.65;;
61385;SDS011;47256;18.904;-99.054;2023-04-24T14:12:02;35.33;;;18.05;;
61385;SDS011;47256;18.904;-99.054;2023-04-24T14:14:30;26.38;;;16.60;;
61385;SDS011;47256;18.904;-99.054;2023-04-24T14:16:57;37.58;;;16.85;;
61385;SDS011;47256;18.904;-99.054;2023-04-24T14:19:24;25.08;;;15.73;;
61385;SDS011;47256;18.904;-99.054;2023-04-24T14:21:53;28.02;;;14.63;;
61385;SDS011;47256;18.904;-99.054;2023-04-24T14:24:22;29.70;;;16.85;;
61385;SDS011;47256;18.904;-99.054;2023-04-24T14:26:49;21.60;;;13.82;;
61385;SDS011;47256;18.904;-99.054;2023-04-24T14:29:16;28.23;;;15.15;;